Time;durP1;ratioP1;P1;durP2;ratioP2;P2;SDS_P1;SDS_P2;PMS_P1;PMS_P2;Temp;Humidity;BMP_temperature;BMP_pressure;BME280_temperature;BME280_humidity;BME280_pressure;Samples;Min_cycle;Max_cycle;Signal;HPM_P1;HPM_P2
2021/08/08 00:01:19;;;;;;;0.40;0.20;;;17.50;99.90;;;;;;5090741;28;20386;-77
2021/08/08 00:03:45;;;;;;;0.40;0.25;;;17.40;99.90;;;;;;5094355;28;20412;-79
2021/08/08 00:06:11;;;;;;;0.40;0.20;;;17.50;99.90;;;;;;5076280;28;20390;-79
2021/08/08 00:08:37;;;;;;;0.40;0.20;;;17.60;99.90;;;;;;5093782;28;20736;-77
2021/08/08 00:11:03;;;;;;;0.40;0.20;;;17.70;99.90;;;;;;5094168;28;20788;-78
2021/08/08 00:13:29;;;;;;;0.40;0.20;;;17.70;99.90;;;;;;5093567;28;20374;-78
2021/08/08 00:15:55;;;;;;;0.40;0.20;;;17.60;99.90;;;;;;5094112;28;20466;-77
2021/08/08 00:18:20;;;;;;;0.40;0.20;;;17.60;99.90;;;;;;5093496;28;20473;-78
2021/08/08 00:20:47;;;;;;;0.40;0.30;;;17.90;99.90;;;;;;5094140;28;20476;-80
2021/08/08 00:23:12;;;;;;;0.40;0.20;;;17.60;99.90;;;;;;5093837;28;20949;-77
2021/08/08 00:25:38;;;;;;;0.40;0.30;;;17.60;99.90;;;;;;5093456;28;20457;-77
2021/08/08 00:28:05;;;;;;;0.40;0.20;;;17.60;99.90;;;;;;5093660;28;20440;-79
2021/08/08 00:30:31;;;;;;;0.40;0.30;;;17.60;99.90;;;;;;5108773;28;20434;-77
2021/08/08 00:32:57;;;;;;;0.40;0.20;;;17.60;99.90;;;;;;5093953;28;20374;-74
2021/08/08 00:35:23;;;;;;;0.40;0.20;;;17.50;99.90;;;;;;5093282;28;20916;-76
2021/08/08 00:37:49;;;;;;;0.40;0.30;;;17.60;99.90;;;;;;5093723;28;20375;-75
2021/08/08 00:40:18;;;;;;;0.40;0.20;;;17.50;99.90;;;;;;5093568;28;20434;-76
2021/08/08 00:42:46;;;;;;;0.40;0.20;;;17.00;99.90;;;;;;5093509;28;20886;-79
2021/08/08 00:45:16;;;;;;;0.40;0.20;;;17.40;99.90;;;;;;5093685;28;20472;-78
2021/08/08 00:47:43;;;;;;;0.40;0.20;;;17.30;99.90;;;;;;5093757;28;20857;-78
2021/08/08 00:50:09;;;;;;;0.40;0.20;;;17.40;99.90;;;;;;5093601;28;20379;-79
2021/08/08 00:52:35;;;;;;;0.40;0.20;;;17.30;99.90;;;;;;5092982;28;20378;-79
2021/08/08 00:55:01;;;;;;;0.40;0.20;;;17.30;99.90;;;;;;5093581;28;20481;-77
2021/08/08 00:57:26;;;;;;;0.40;0.30;;;17.10;99.90;;;;;;5092724;28;20427;-78
2021/08/08 00:59:52;;;;;;;0.40;0.20;;;17.20;99.90;;;;;;5093565;28;20496;-76
2021/08/08 01:02:21;;;;;;;0.40;0.30;;;17.10;99.90;;;;;;5092884;28;20402;-78
2021/08/08 01:05:04;;;;;;;0.40;0.20;;;17.00;99.90;;;;;;5075172;28;20481;-78
2021/08/08 01:07:41;;;;;;;0.40;0.20;;;17.20;99.90;;;;;;5092832;28;20382;-77
2021/08/08 01:10:08;;;;;;;0.40;0.30;;;17.10;99.90;;;;;;5093380;28;20418;-75
2021/08/08 01:12:36;;;;;;;0.40;0.20;;;17.10;99.90;;;;;;5092506;28;20376;-76
2021/08/08 01:15:02;;;;;;;0.40;0.20;;;17.10;99.90;;;;;;5074232;28;20929;-74
2021/08/08 01:17:28;;;;;;;0.40;0.20;;;17.10;99.90;;;;;;5092553;28;20462;-77
2021/08/08 01:20:03;;;;;;;0.40;0.20;;;17.10;99.90;;;;;;5092867;28;20429;-78
2021/08/08 01:22:31;;;;;;;0.40;0.20;;;17.10;99.90;;;;;;5092848;28;20379;-77
2021/08/08 01:24:59;;;;;;;0.40;0.20;;;17.10;99.90;;;;;;5092694;28;20382;-77
2021/08/08 01:27:26;;;;;;;0.40;0.20;;;17.10;99.90;;;;;;5092119;28;20874;-78
2021/08/08 01:29:53;;;;;;;0.40;0.20;;;17.10;99.90;;;;;;5092636;28;20402;-78
2021/08/08 01:32:19;;;;;;;0.40;0.20;;;16.90;99.90;;;;;;5092680;28;20865;-78
2021/08/08 01:34:47;;;;;;;0.40;0.20;;;17.00;99.90;;;;;;5092792;28;20382;-76
2021/08/08 01:37:15;;;;;;;0.40;0.20;;;17.00;99.90;;;;;;5092756;28;20413;-77
2021/08/08 01:39:43;;;;;;;0.40;0.20;;;17.00;99.90;;;;;;5092192;28;20402;-77
2021/08/08 01:42:10;;;;;;;0.40;0.20;;;17.00;99.90;;;;;;5092500;28;20870;-74
2021/08/08 01:44:42;;;;;;;0.40;0.20;;;16.90;99.90;;;;;;5073915;28;20803;-78
2021/08/08 01:47:11;;;;;;;0.40;0.20;;;17.00;99.90;;;;;;5092726;28;20401;-78
2021/08/08 01:49:39;;;;;;;0.40;0.20;;;17.00;99.90;;;;;;5091531;28;20378;-79
2021/08/08 01:52:07;;;;;;;0.40;0.20;;;17.00;99.90;;;;;;5074327;28;20389;-78
2021/08/08 01:54:33;;;;;;;0.40;0.20;;;17.00;99.90;;;;;;5073627;28;20431;-78
2021/08/08 01:56:59;;;;;;;0.40;0.30;;;17.00;99.90;;;;;;5092075;28;20387;-78
2021/08/08 01:59:25;;;;;;;0.40;0.20;;;17.00;99.90;;;;;;5091416;28;20406;-77
2021/08/08 02:01:51;;;;;;;0.40;0.20;;;17.00;99.90;;;;;;5092407;28;20393;-77
2021/08/08 02:04:21;;;;;;;0.40;0.30;;;17.10;99.90;;;;;;5092192;28;20376;-78
2021/08/08 02:06:47;;;;;;;0.40;0.30;;;17.00;99.90;;;;;;5092118;28;20378;-77
2021/08/08 02:09:13;;;;;;;0.40;0.20;;;17.00;99.90;;;;;;5073867;28;20808;-75
2021/08/08 02:11:39;;;;;;;0.40;0.20;;;17.00;99.90;;;;;;5091578;28;20461;-77
2021/08/08 02:14:05;;;;;;;0.40;0.20;;;17.10;99.90;;;;;;5092047;28;20370;-78
2021/08/08 02:16:32;;;;;;;0.40;0.20;;;16.90;99.90;;;;;;5073211;28;20390;-77
2021/08/08 02:18:58;;;;;;;0.40;0.20;;;17.10;99.90;;;;;;5073886;28;20926;-76
2021/08/08 02:21:24;;;;;;;0.40;0.20;;;16.90;99.90;;;;;;5091276;28;20432;-76
2021/08/08 02:23:50;;;;;;;0.40;0.20;;;16.90;99.90;;;;;;5091663;28;20375;-75
2021/08/08 02:26:15;;;;;;;0.40;0.20;;;16.90;99.90;;;;;;5090779;28;20443;-78
2021/08/08 02:28:41;;;;;;;0.40;0.20;;;17.00;99.90;;;;;;5091024;28;20429;-75
2021/08/08 02:31:07;;;;;;;0.40;0.30;;;17.00;99.90;;;;;;5091688;28;20417;-73
2021/08/08 02:33:32;;;;;;;0.40;0.20;;;17.00;99.90;;;;;;5090708;28;20516;-77
2021/08/08 02:35:58;;;;;;;0.40;0.20;;;17.00;99.90;;;;;;5091298;28;20461;-79
2021/08/08 02:38:24;;;;;;;0.40;0.20;;;17.00;99.90;;;;;;5091063;28;20466;-77
2021/08/08 02:40:50;;;;;;;0.40;0.20;;;16.90;99.90;;;;;;5091539;28;20758;-78
2021/08/08 02:43:16;;;;;;;0.40;0.20;;;16.90;99.90;;;;;;5091368;28;20384;-77
2021/08/08 02:45:42;;;;;;;0.40;0.20;;;16.70;99.90;;;;;;5090595;28;20374;-78
2021/08/08 02:48:07;;;;;;;0.40;0.20;;;16.70;99.90;;;;;;5091279;28;20413;-78
2021/08/08 02:50:33;;;;;;;0.40;0.30;;;16.60;99.90;;;;;;5091191;28;20434;-77
2021/08/08 02:52:59;;;;;;;0.40;0.20;;;16.70;99.90;;;;;;5073409;28;20407;-78
2021/08/08 02:55:25;;;;;;;0.40;0.20;;;16.70;99.90;;;;;;5090789;28;20704;-78
2021/08/08 02:57:50;;;;;;;0.40;0.20;;;16.60;99.90;;;;;;5091177;28;20435;-79
2021/08/08 03:00:16;;;;;;;0.40;0.20;;;16.70;99.90;;;;;;5106607;28;20417;-76
2021/08/08 03:02:42;;;;;;;0.40;0.20;;;16.70;99.90;;;;;;5072889;28;20413;-75
2021/08/08 03:05:08;;;;;;;0.40;0.20;;;16.90;99.90;;;;;;5091262;28;20374;-77
2021/08/08 03:07:34;;;;;;;0.40;0.30;;;16.80;99.90;;;;;;5090708;28;20378;-78
2021/08/08 03:10:03;;;;;;;0.40;0.20;;;16.90;99.90;;;;;;5106516;28;20386;-77
2021/08/08 03:12:28;;;;;;;0.40;0.20;;;16.90;99.90;;;;;;5091169;28;20413;-78
2021/08/08 03:14:54;;;;;;;0.40;0.20;;;16.80;99.90;;;;;;5090859;28;20406;-78
2021/08/08 03:17:19;;;;;;;0.40;0.20;;;16.70;99.90;;;;;;5091556;28;21042;-75
2021/08/08 03:19:45;;;;;;;0.40;0.30;;;16.80;99.90;;;;;;5090478;28;20679;-75
2021/08/08 03:22:11;;;;;;;0.40;0.20;;;16.80;99.90;;;;;;5091115;28;20370;-78
2021/08/08 03:24:36;;;;;;;0.40;0.30;;;16.80;99.90;;;;;;5090582;28;20417;-76
2021/08/08 03:27:02;;;;;;;0.40;0.20;;;16.80;99.90;;;;;;5090630;28;20926;-76
2021/08/08 03:29:28;;;;;;;0.40;0.30;;;16.80;99.90;;;;;;5090175;28;20498;-77
2021/08/08 03:31:53;;;;;;;0.40;0.20;;;17.20;99.90;;;;;;5072942;28;20397;-77
2021/08/08 03:34:19;;;;;;;0.40;0.30;;;16.70;99.90;;;;;;5090812;28;20378;-78
2021/08/08 03:36:44;;;;;;;0.40;0.30;;;16.70;99.90;;;;;;5091151;28;20378;-75
2021/08/08 03:39:10;;;;;;;0.40;0.30;;;16.70;99.90;;;;;;5094602;28;20382;-76
2021/08/08 03:41:36;;;;;;;0.40;0.20;;;16.70;99.90;;;;;;5094032;28;20378;-78
2021/08/08 03:44:01;;;;;;;0.40;0.30;;;16.70;99.90;;;;;;5094993;28;20469;-78
2021/08/08 03:46:27;;;;;;;0.40;0.20;;;16.60;99.90;;;;;;5094183;28;20374;-76
2021/08/08 03:48:53;;;;;;;0.40;0.20;;;16.70;99.90;;;;;;5094580;28;20386;-77
2021/08/08 03:51:18;;;;;;;0.40;0.20;;;16.60;99.90;;;;;;5094516;28;20378;-78
2021/08/08 03:53:44;;;;;;;0.40;0.30;;;16.60;99.90;;;;;;5094307;28;20382;-78
2021/08/08 03:56:09;;;;;;;0.40;0.30;;;16.40;99.90;;;;;;5094699;28;20775;-76
2021/08/08 03:58:35;;;;;;;0.40;0.30;;;16.50;99.90;;;;;;5093849;28;20874;-78
2021/08/08 04:01:02;;;;;;;0.40;0.20;;;16.60;99.90;;;;;;5094473;28;20863;-77
2021/08/08 04:03:29;;;;;;;0.40;0.25;;;16.50;99.90;;;;;;5094603;28;20385;-79
2021/08/08 04:05:54;;;;;;;0.40;0.20;;;16.60;99.90;;;;;;5094534;28;20398;-75
2021/08/08 04:08:20;;;;;;;0.40;0.20;;;16.60;99.90;;;;;;5094911;28;20386;-77
2021/08/08 04:10:46;;;;;;;0.40;0.20;;;16.50;99.90;;;;;;5075723;28;20386;-74
2021/08/08 04:13:11;;;;;;;0.40;0.30;;;16.70;99.90;;;;;;5094581;28;20465;-77
2021/08/08 04:15:37;;;;;;;0.40;0.28;;;16.50;99.90;;;;;;5093583;28;20830;-77
2021/08/08 04:18:03;;;;;;;0.40;0.20;;;16.70;99.90;;;;;;5094336;28;20382;-77
2021/08/08 04:20:29;;;;;;;0.40;0.20;;;16.50;99.90;;;;;;5093829;28;20445;-79
2021/08/08 04:22:54;;;;;;;0.40;0.20;;;16.60;99.90;;;;;;5094014;28;20382;-78
2021/08/08 04:25:20;;;;;;;0.40;0.20;;;16.60;99.90;;;;;;5094248;28;20426;-78
2021/08/08 04:27:46;;;;;;;0.40;0.20;;;16.60;99.90;;;;;;5075095;28;20897;-78
2021/08/08 04:30:11;;;;;;;0.40;0.30;;;16.60;99.90;;;;;;5094394;28;20783;-77
2021/08/08 04:32:37;;;;;;;0.40;0.20;;;16.60;99.90;;;;;;5093440;28;20378;-77
2021/08/08 04:35:03;;;;;;;0.40;0.20;;;16.50;99.90;;;;;;5094032;28;20374;-76
2021/08/08 04:37:29;;;;;;;0.40;0.30;;;16.60;99.90;;;;;;5109245;28;20382;-76
2021/08/08 04:39:54;;;;;;;0.40;0.30;;;16.50;99.90;;;;;;5093332;28;20413;-77
2021/08/08 04:42:20;;;;;;;0.40;0.20;;;16.50;99.90;;;;;;5093579;28;20412;-76
2021/08/08 04:44:45;;;;;;;0.40;0.20;;;16.60;99.90;;;;;;5092977;28;20382;-75
2021/08/08 04:47:11;;;;;;;0.40;0.20;;;16.50;99.90;;;;;;5093477;28;20835;-78
2021/08/08 04:49:37;;;;;;;0.40;0.20;;;16.40;99.90;;;;;;5092040;28;20380;-77
2021/08/08 04:52:03;;;;;;;0.40;0.20;;;16.50;99.90;;;;;;5093516;28;20478;-77
2021/08/08 04:54:29;;;;;;;0.40;0.20;;;16.40;99.90;;;;;;5093785;28;20371;-77
2021/08/08 04:56:54;;;;;;;0.40;0.20;;;16.40;99.90;;;;;;5093000;28;20378;-78
2021/08/08 04:59:20;;;;;;;0.40;0.30;;;16.40;99.90;;;;;;5109387;28;20493;-74
2021/08/08 05:01:46;;;;;;;0.40;0.20;;;16.40;99.90;;;;;;5092547;28;20382;-78
2021/08/08 05:04:11;;;;;;;0.40;0.20;;;16.50;99.90;;;;;;5093534;28;20386;-75
2021/08/08 05:06:37;;;;;;;0.40;0.30;;;16.50;99.90;;;;;;5092440;28;20380;-78
2021/08/08 05:09:04;;;;;;;0.40;0.20;;;16.50;99.90;;;;;;5093095;28;20382;-75
2021/08/08 05:11:30;;;;;;;0.40;0.20;;;16.50;99.90;;;;;;5093332;28;20414;-75
2021/08/08 05:13:55;;;;;;;0.40;0.20;;;16.50;99.90;;;;;;5092712;28;20761;-78
2021/08/08 05:16:21;;;;;;;0.40;0.20;;;16.60;99.90;;;;;;5093168;28;20419;-75
2021/08/08 05:18:47;;;;;;;0.40;0.20;;;16.60;99.90;;;;;;5092665;28;20869;-76
2021/08/08 05:21:12;;;;;;;0.40;0.20;;;16.60;99.90;;;;;;5093051;28;20492;-75
2021/08/08 05:23:39;;;;;;;0.40;0.30;;;16.80;99.90;;;;;;5092247;28;20386;-77
2021/08/08 05:26:04;;;;;;;0.40;0.20;;;16.80;99.90;;;;;;5074890;28;20386;-77
2021/08/08 05:28:31;;;;;;;0.40;0.20;;;16.60;99.90;;;;;;5092791;28;20451;-78
2021/08/08 05:30:56;;;;;;;0.40;0.20;;;16.60;99.90;;;;;;5092380;28;20719;-77
2021/08/08 05:33:22;;;;;;;0.40;0.30;;;16.70;99.90;;;;;;5092804;28;20382;-78
2021/08/08 05:35:51;;;;;;;0.40;0.20;;;16.70;99.90;;;;;;5092335;28;20875;-77
2021/08/08 05:38:16;;;;;;;0.40;0.20;;;16.70;99.90;;;;;;5092722;28;20378;-77
2021/08/08 05:40:42;;;;;;;0.40;0.30;;;16.70;99.90;;;;;;5091833;28;20758;-76
2021/08/08 05:43:08;;;;;;;0.40;0.20;;;16.70;99.90;;;;;;5092724;28;20382;-75
2021/08/08 05:45:33;;;;;;;0.40;0.30;;;16.70;99.90;;;;;;5092900;28;20746;-75
2021/08/08 05:47:59;;;;;;;0.40;0.20;;;16.60;99.90;;;;;;5091664;28;20389;-76
2021/08/08 05:50:24;;;;;;;0.40;0.20;;;16.70;99.90;;;;;;5092612;28;20378;-75
2021/08/08 05:52:51;;;;;;;0.40;0.20;;;16.70;99.90;;;;;;5091567;28;20380;-77
2021/08/08 05:55:18;;;;;;;0.40;0.30;;;16.60;99.90;;;;;;5092774;28;20370;-77
2021/08/08 05:57:44;;;;;;;0.40;0.20;;;16.60;99.90;;;;;;5091742;28;20410;-77
2021/08/08 06:00:11;;;;;;;0.40;0.20;;;16.60;99.90;;;;;;5091735;28;20445;-75
2021/08/08 06:02:37;;;;;;;0.40;0.20;;;16.50;99.90;;;;;;5091425;28;20416;-76
2021/08/08 06:05:04;;;;;;;0.40;0.20;;;16.60;99.90;;;;;;5092333;28;20404;-77
2021/08/08 06:07:29;;;;;;;0.40;0.20;;;16.70;99.90;;;;;;5092199;28;20386;-75
2021/08/08 06:09:55;;;;;;;0.40;0.20;;;16.80;99.90;;;;;;5073475;28;21165;-74
2021/08/08 06:12:20;;;;;;;0.40;0.20;;;16.70;99.90;;;;;;5091808;28;20378;-75
2021/08/08 06:14:46;;;;;;;0.40;0.30;;;16.90;99.90;;;;;;5091239;28;20374;-78
2021/08/08 06:17:12;;;;;;;0.40;0.30;;;16.80;99.90;;;;;;5091637;28;20386;-76
2021/08/08 06:19:37;;;;;;;0.40;0.20;;;16.80;99.90;;;;;;5091638;28;20414;-75
2021/08/08 06:22:03;;;;;;;0.40;0.20;;;16.80;99.90;;;;;;5091965;28;20901;-75
2021/08/08 06:24:29;;;;;;;0.40;0.30;;;16.90;99.90;;;;;;5091772;28;20386;-78
2021/08/08 06:26:55;;;;;;;0.40;0.30;;;16.90;99.90;;;;;;5091185;28;20461;-76
2021/08/08 06:29:20;;;;;;;0.40;0.30;;;16.90;99.90;;;;;;5091878;28;20433;-77
2021/08/08 06:31:46;;;;;;;0.40;0.30;;;16.80;99.90;;;;;;5091332;28;20385;-77
2021/08/08 06:34:12;;;;;;;0.40;0.20;;;17.00;99.90;;;;;;5091770;28;20407;-76
2021/08/08 06:36:37;;;;;;;0.40;0.20;;;16.90;99.90;;;;;;5091154;28;20370;-76
2021/08/08 06:39:06;;;;;;;0.40;0.20;;;16.90;99.90;;;;;;5091634;28;20370;-74
2021/08/08 06:41:33;;;;;;;0.40;0.20;;;16.90;99.90;;;;;;5091756;28;20390;-77
2021/08/08 06:43:59;;;;;;;0.40;0.20;;;16.90;99.90;;;;;;5090999;28;20378;-75
2021/08/08 06:46:24;;;;;;;0.40;0.20;;;16.80;99.90;;;;;;5091658;28;20382;-76
2021/08/08 06:48:50;;;;;;;0.40;0.30;;;16.90;99.90;;;;;;5090929;28;20465;-76
2021/08/08 06:51:16;;;;;;;0.40;0.30;;;16.90;99.90;;;;;;5091570;28;20385;-75
2021/08/08 06:53:41;;;;;;;0.40;0.20;;;16.80;99.90;;;;;;5090583;28;20881;-74
2021/08/08 06:56:07;;;;;;;0.40;0.20;;;17.70;99.90;;;;;;5091734;28;20851;-76
2021/08/08 06:58:33;;;;;;;0.40;0.20;;;16.80;99.90;;;;;;5107074;28;20439;-75
2021/08/08 07:00:58;;;;;;;0.40;0.20;;;16.90;99.90;;;;;;5106064;28;20863;-75
2021/08/08 07:03:24;;;;;;;0.40;0.20;;;16.90;99.90;;;;;;5091349;28;20444;-75
2021/08/08 07:05:50;;;;;;;0.40;0.20;;;16.80;99.90;;;;;;5090885;28;20877;-75
2021/08/08 07:08:15;;;;;;;0.40;0.20;;;16.80;99.90;;;;;;5090979;28;20463;-74
2021/08/08 07:10:41;;;;;;;0.40;0.20;;;16.70;99.90;;;;;;5090681;28;20374;-76
2021/08/08 07:13:07;;;;;;;0.40;0.20;;;16.70;99.90;;;;;;5094688;28;20377;-76
2021/08/08 07:15:32;;;;;;;0.40;0.20;;;16.70;99.90;;;;;;5095386;28;20385;-76
2021/08/08 07:17:58;;;;;;;0.40;0.20;;;16.70;99.90;;;;;;5094855;28;20374;-76
2021/08/08 07:20:24;;;;;;;0.40;0.20;;;16.70;99.90;;;;;;5095410;28;20874;-77
2021/08/08 07:22:49;;;;;;;0.40;0.20;;;16.80;99.90;;;;;;5094496;28;20739;-77
2021/08/08 07:25:15;;;;;;;0.40;0.20;;;16.90;99.90;;;;;;5095534;28;20723;-77
2021/08/08 07:27:41;;;;;;;0.40;0.20;;;17.00;99.90;;;;;;5094441;28;20846;-75
2021/08/08 07:30:07;;;;;;;0.40;0.20;;;16.90;99.90;;;;;;5095014;28;20888;-77
2021/08/08 07:32:33;;;;;;;0.40;0.20;;;17.10;99.90;;;;;;5095245;28;20447;-79
2021/08/08 07:35:00;;;;;;;0.40;0.20;;;16.90;99.90;;;;;;5076321;28;20385;-81
2021/08/08 07:37:25;;;;;;;0.40;0.22;;;16.90;99.90;;;;;;5077001;28;20389;-78
2021/08/08 07:39:51;;;;;;;0.40;0.30;;;17.00;99.90;;;;;;5094344;28;20971;-77
2021/08/08 07:42:17;;;;;;;0.40;0.20;;;17.00;99.90;;;;;;5095483;28;20726;-77
2021/08/08 07:44:42;;;;;;;0.40;0.20;;;17.10;99.90;;;;;;5094326;28;20370;-76
2021/08/08 07:47:08;;;;;;;0.40;0.20;;;17.30;99.90;;;;;;5094677;28;20416;-75
2021/08/08 07:49:34;;;;;;;0.40;0.20;;;17.30;99.90;;;;;;5094750;28;20378;-77
2021/08/08 07:51:59;;;;;;;0.40;0.20;;;17.50;99.90;;;;;;5094438;28;20374;-76
2021/08/08 07:54:25;;;;;;;0.40;0.20;;;17.60;99.90;;;;;;5094835;28;20378;-76
2021/08/08 07:56:51;;;;;;;0.40;0.20;;;17.70;99.90;;;;;;5093870;28;20421;-77
2021/08/08 07:59:16;;;;;;;0.40;0.30;;;17.80;99.90;;;;;;5094645;28;20400;-77
2021/08/08 08:01:42;;;;;;;0.40;0.20;;;17.80;99.90;;;;;;5076663;28;20421;-78
2021/08/08 08:04:09;;;;;;;0.40;0.30;;;17.70;99.90;;;;;;5094611;28;20390;-75
2021/08/08 08:06:34;;;;;;;0.40;0.20;;;17.90;99.90;;;;;;5076489;28;20736;-77
2021/08/08 08:09:00;;;;;;;0.40;0.20;;;17.50;99.90;;;;;;5093920;28;20385;-77
2021/08/08 08:11:26;;;;;;;0.40;0.20;;;17.90;99.90;;;;;;5094410;28;20872;-77
2021/08/08 08:13:51;;;;;;;0.40;0.20;;;18.00;99.90;;;;;;5093765;28;20769;-77
2021/08/08 08:16:17;;;;;;;0.40;0.20;;;18.00;99.90;;;;;;5093927;28;20378;-77
2021/08/08 08:18:43;;;;;;;0.40;0.20;;;18.20;99.90;;;;;;5094288;28;20410;-78
2021/08/08 08:21:09;;;;;;;0.40;0.20;;;17.30;99.90;;;;;;5094263;28;20402;-77
2021/08/08 08:23:34;;;;;;;0.40;0.20;;;18.30;99.90;;;;;;5093805;28;20385;-75
2021/08/08 08:26:00;;;;;;;0.40;0.20;;;18.30;99.90;;;;;;5093584;28;20383;-75
2021/08/08 08:28:29;;;;;;;0.40;0.20;;;18.30;99.90;;;;;;5093772;28;20900;-78
2021/08/08 08:30:59;;;;;;;0.40;0.20;;;18.40;99.90;;;;;;5093547;28;20394;-76
2021/08/08 08:33:26;;;;;;;0.40;0.20;;;18.30;99.90;;;;;;5092938;28;20871;-78
2021/08/08 08:35:52;;;;;;;0.40;0.20;;;18.50;99.90;;;;;;5093494;28;20378;-79
2021/08/08 08:38:18;;;;;;;0.40;0.28;;;18.80;99.90;;;;;;5094222;28;20366;-76
2021/08/08 08:40:44;;;;;;;0.40;0.20;;;18.90;99.90;;;;;;5093837;28;20398;-76
2021/08/08 08:43:11;;;;;;;0.40;0.30;;;18.90;99.90;;;;;;5093338;28;20462;-76
2021/08/08 08:45:41;;;;;;;0.40;0.30;;;18.90;99.90;;;;;;5093710;28;20370;-77
2021/08/08 08:48:08;;;;;;;0.40;0.30;;;19.10;99.90;;;;;;5093003;28;20956;-78
2021/08/08 08:50:35;;;;;;;0.40;0.20;;;19.20;99.70;;;;;;5093723;28;20374;-78
2021/08/08 08:53:02;;;;;;;0.40;0.30;;;19.30;99.90;;;;;;5092805;28;20378;-76
2021/08/08 08:55:28;;;;;;;0.40;0.30;;;19.30;99.90;;;;;;5093320;28;20378;-76
2021/08/08 08:57:55;;;;;;;0.40;0.20;;;19.10;99.20;;;;;;5093031;28;20382;-77
2021/08/08 09:00:24;;;;;;;0.40;0.20;;;19.00;97.90;;;;;;5093647;28;20410;-79
2021/08/08 09:02:52;;;;;;;0.40;0.20;;;19.20;98.60;;;;;;5092882;28;20386;-78
2021/08/08 09:05:21;;;;;;;0.40;0.20;;;19.10;99.90;;;;;;5093040;28;20907;-77
2021/08/08 09:07:47;;;;;;;0.40;0.20;;;19.00;98.80;;;;;;5074700;28;20860;-77
2021/08/08 09:10:15;;;;;;;0.40;0.20;;;19.00;99.50;;;;;;5092991;28;20508;-76
2021/08/08 09:12:41;;;;;;;0.40;0.20;;;19.00;98.90;;;;;;5093314;28;20385;-77
2021/08/08 09:15:08;;;;;;;0.40;0.25;;;18.80;99.90;;;;;;5092591;28;20660;-77
2021/08/08 09:17:38;;;;;;;0.40;0.30;;;19.10;99.90;;;;;;5093009;28;20382;-75
2021/08/08 09:20:09;;;;;;;0.40;0.20;;;18.80;98.50;;;;;;5092086;28;21092;-76
2021/08/08 09:22:40;;;;;;;0.40;0.20;;;18.90;99.40;;;;;;5093203;28;20382;-77
2021/08/08 09:25:09;;;;;;;0.40;0.20;;;19.00;99.80;;;;;;5092133;28;20374;-78
2021/08/08 09:27:38;;;;;;;0.40;0.20;;;19.20;99.00;;;;;;5074932;28;20401;-78
2021/08/08 09:30:26;;;;;;;0.40;0.20;;;19.10;98.80;;;;;;5092467;28;20463;-78
2021/08/08 09:33:02;;;;;;;0.40;0.20;;;18.80;98.10;;;;;;5091512;28;20402;-78
2021/08/08 09:35:35;;;;;;;0.40;0.20;;;18.90;99.00;;;;;;5092214;28;20382;-77
2021/08/08 09:38:09;;;;;;;0.40;0.20;;;19.00;99.30;;;;;;5092210;28;20377;-79
2021/08/08 09:40:37;;;;;;;0.40;0.20;;;18.90;99.30;;;;;;5074533;28;20965;-76
2021/08/08 09:43:04;;;;;;;0.40;0.20;;;19.00;99.20;;;;;;5092106;28;20441;-78
2021/08/08 09:45:43;;;;;;;0.40;0.20;;;19.20;99.90;;;;;;5092748;28;20370;-76
2021/08/08 09:48:12;;;;;;;0.40;0.30;;;19.20;99.90;;;;;;5091666;28;20385;-78
2021/08/08 09:50:43;;;;;;;0.40;0.30;;;19.20;98.10;;;;;;5092547;28;20382;-81
2021/08/08 09:53:15;;;;;;;0.40;0.20;;;19.10;97.20;;;;;;5091986;28;20374;-79
2021/08/08 09:55:40;;;;;;;0.40;0.20;;;19.20;98.90;;;;;;5074246;28;20390;-78
2021/08/08 09:58:20;;;;;;;0.40;0.20;;;19.20;97.70;;;;;;5091695;28;20374;-79
2021/08/08 10:00:46;;;;;;;0.40;0.20;;;19.20;97.80;;;;;;5092186;28;20413;-77
2021/08/08 10:03:15;;;;;;;0.40;0.20;;;19.40;97.70;;;;;;5073228;28;20386;-76
2021/08/08 10:05:43;;;;;;;0.40;0.20;;;19.30;98.50;;;;;;5092237;28;20378;-79
2021/08/08 10:08:11;;;;;;;0.40;0.20;;;19.80;98.80;;;;;;5091638;28;20461;-79
2021/08/08 10:10:39;;;;;;;0.40;0.30;;;19.50;96.20;;;;;;5092049;28;20382;-78
2021/08/08 10:13:07;;;;;;;0.40;0.20;;;19.40;99.30;;;;;;5091554;28;20732;-76
2021/08/08 10:15:37;;;;;;;0.40;0.30;;;19.40;96.60;;;;;;5091854;28;20417;-79
2021/08/08 10:18:04;;;;;;;0.40;0.20;;;19.40;99.50;;;;;;5073281;28;20473;-76
2021/08/08 10:20:31;;;;;;;0.40;0.20;;;19.50;96.60;;;;;;5091576;28;20894;-76
2021/08/08 10:22:57;;;;;;;0.40;0.20;;;19.60;96.70;;;;;;5091213;28;20465;-75
2021/08/08 10:25:24;;;;;;;0.40;0.20;;;19.40;96.20;;;;;;5091994;28;20380;-76
2021/08/08 10:27:50;;;;;;;0.40;0.30;;;19.30;99.90;;;;;;5091440;28;20413;-78
2021/08/08 10:30:16;;;;;;;0.40;0.20;;;19.60;99.90;;;;;;5091460;28;20386;-77
2021/08/08 10:32:42;;;;;;;0.40;0.20;;;19.80;97.20;;;;;;5091391;28;20927;-79
2021/08/08 10:35:12;;;;;;;0.40;0.30;;;19.70;95.40;;;;;;5090780;28;20503;-77
2021/08/08 10:37:39;;;;;;;0.40;0.30;;;19.60;95.50;;;;;;5091763;28;20378;-80
2021/08/08 10:40:05;;;;;;;0.40;0.20;;;19.80;94.70;;;;;;5090902;28;20497;-80
2021/08/08 10:42:46;;;;;;;0.40;0.20;;;19.60;94.50;;;;;;5091646;28;20432;-79
2021/08/08 10:45:29;;;;;;;0.40;0.30;;;19.70;94.30;;;;;;5090906;28;20382;-77
2021/08/08 10:48:00;;;;;;;0.40;0.30;;;19.80;94.50;;;;;;5090367;28;20443;-79
2021/08/08 10:50:46;;;;;;;0.40;0.20;;;19.90;94.00;;;;;;5091404;28;20790;-76
2021/08/08 10:53:26;;;;;;;0.40;0.20;;;19.90;92.90;;;;;;5090838;28;20785;-76
2021/08/08 10:56:12;;;;;;;0.40;0.27;;;19.70;96.70;;;;;;5091035;28;20428;-76
2021/08/08 10:58:39;;;;;;;0.40;0.30;;;20.00;93.20;;;;;;5091563;28;20390;-75
2021/08/08 11:01:19;;;;;;;0.40;0.30;;;20.10;92.90;;;;;;5090771;28;20401;-79
2021/08/08 11:03:59;;;;;;;0.40;0.30;;;20.10;92.60;;;;;;5091338;28;20382;-80
2021/08/08 11:06:27;;;;;;;0.40;0.30;;;20.00;93.00;;;;;;5091411;28;20427;-75
2021/08/08 11:08:58;;;;;;;0.40;0.20;;;20.00;92.10;;;;;;5072875;28;20381;-77
2021/08/08 11:11:31;;;;;;;0.40;0.20;;;20.10;92.70;;;;;;5091515;28;20743;-81
2021/08/08 11:14:17;;;;;;;0.40;0.30;;;20.10;92.90;;;;;;5090858;28;20374;-78
2021/08/08 11:16:46;;;;;;;0.40;0.20;;;20.10;93.10;;;;;;5090652;28;20374;-78
2021/08/08 11:19:12;;;;;;;0.40;0.20;;;20.10;93.40;;;;;;5090658;28;20374;-77
2021/08/08 11:21:39;;;;;;;0.40;0.20;;;20.20;94.80;;;;;;5090875;28;20402;-77
2021/08/08 11:24:10;;;;;;;0.40;0.30;;;20.40;97.00;;;;;;5090691;28;20384;-75
2021/08/08 11:26:36;;;;;;;0.40;0.30;;;20.50;93.50;;;;;;5091176;28;20374;-75
2021/08/08 11:29:04;;;;;;;0.40;0.30;;;20.50;95.70;;;;;;5090326;28;20904;-77
2021/08/08 11:31:35;;;;;;;0.40;0.30;;;20.70;96.90;;;;;;5091350;28;20726;-78
2021/08/08 11:34:03;;;;;;;0.40;0.20;;;20.80;92.70;;;;;;5090452;28;20781;-77
2021/08/08 11:36:41;;;;;;;0.40;0.30;;;20.80;93.80;;;;;;5090893;28;20448;-76
2021/08/08 11:39:09;;;;;;;0.40;0.28;;;20.70;97.20;;;;;;5090447;28;20377;-75
2021/08/08 11:41:35;;;;;;;0.40;0.20;;;20.60;93.20;;;;;;5090711;28;20413;-77
2021/08/08 11:44:08;;;;;;;0.40;0.30;;;20.50;92.40;;;;;;5090118;28;20382;-78
2021/08/08 11:46:35;;;;;;;0.40;0.20;;;20.60;93.70;;;;;;5090874;28;20380;-74
2021/08/08 11:49:19;;;;;;;0.40;0.30;;;20.70;91.70;;;;;;5090288;28;20418;-77
2021/08/08 11:52:17;;;;;;;0.40;0.20;;;20.50;95.70;;;;;;5090818;28;20389;-76
2021/08/08 11:54:45;;;;;;;0.40;0.20;;;20.60;91.90;;;;;;5071904;28;20393;-78
2021/08/08 11:57:26;;;;;;;0.40;0.20;;;20.40;92.80;;;;;;5090280;28;20378;-78
2021/08/08 11:59:52;;;;;;;0.40;0.30;;;20.60;92.70;;;;;;5094786;28;20510;-74
2021/08/08 12:02:18;;;;;;;0.40;0.20;;;20.30;92.10;;;;;;5093801;28;20813;-78
2021/08/08 12:04:44;;;;;;;0.40;0.20;;;20.50;96.50;;;;;;5094456;28;20370;-77
2021/08/08 12:07:10;;;;;;;0.40;0.20;;;20.10;92.90;;;;;;5093718;28;20378;-78
2021/08/08 12:09:37;;;;;;;0.40;0.30;;;20.00;93.00;;;;;;5094459;28;20385;-79
2021/08/08 12:12:05;;;;;;;0.40;0.30;;;20.60;93.50;;;;;;5075453;28;20386;-80
2021/08/08 12:14:38;;;;;;;0.40;0.20;;;21.00;93.40;;;;;;5094279;28;20394;-79
2021/08/08 12:17:13;;;;;;;0.40;0.20;;;21.50;90.30;;;;;;5093496;28;20719;-78
2021/08/08 12:19:43;;;;;;;0.40;0.20;;;21.40;89.10;;;;;;5094153;28;20439;-76
2021/08/08 12:22:13;;;;;;;0.40;0.20;;;22.10;92.70;;;;;;5093300;28;20862;-78
2021/08/08 12:24:44;;;;;;;0.40;0.30;;;22.10;88.00;;;;;;5094482;28;20385;-77
2021/08/08 12:27:14;;;;;;;0.40;0.30;;;22.10;88.20;;;;;;5093469;28;20374;-76
2021/08/08 12:29:41;;;;;;;0.40;0.30;;;22.40;89.70;;;;;;5093656;28;20413;-78
2021/08/08 12:32:15;;;;;;;0.40;0.20;;;22.40;88.20;;;;;;5075411;28;20727;-75
2021/08/08 12:34:43;;;;;;;0.40;0.30;;;21.90;89.10;;;;;;5093710;28;20854;-78
2021/08/08 12:37:13;;;;;;;0.40;0.30;;;22.00;90.00;;;;;;5093305;28;20359;-80
2021/08/08 12:39:42;;;;;;;0.40;0.30;;;21.10;88.80;;;;;;5093429;28;20878;-74
2021/08/08 12:42:23;;;;;;;0.40;0.30;;;21.20;90.30;;;;;;5093053;28;20370;-75
2021/08/08 12:44:59;;;;;;;0.40;0.30;;;21.30;92.20;;;;;;5109413;28;20414;-77
2021/08/08 12:47:26;;;;;;;0.40;0.20;;;21.70;88.60;;;;;;5093812;28;20379;-75
2021/08/08 12:49:52;;;;;;;0.40;0.20;;;22.00;89.20;;;;;;5093756;28;20382;-75